sensor_id;sensor_type;location;lat;lon;timestamp;pressure;altitude;pressure_sealevel;temperature;humidity
74228;BME280;62587;52.352;5.006;2022-11-06T00:00:19;101218.75;;;21.30;48.03
74228;BME280;62587;52.352;5.006;2022-11-06T00:02:45;101205.44;;;21.30;47.91
74228;BME280;62587;52.352;5.006;2022-11-06T00:05:10;101204.69;;;21.28;48.13
74228;BME280;62587;52.352;5.006;2022-11-06T00:07:55;101218.03;;;21.28;48.04
74228;BME280;62587;52.352;5.006;2022-11-06T00:10:20;101216.97;;;21.30;47.79
74228;BME280;62587;52.352;5.006;2022-11-06T00:12:46;101206.06;;;21.33;47.90
74228;BME280;62587;52.352;5.006;2022-11-06T00:15:11;101217.47;;;21.35;47.97
74228;BME280;62587;52.352;5.006;2022-11-06T00:17:37;101205.31;;;21.31;48.12
74228;BME280;62587;52.352;5.006;2022-11-06T00:20:03;101214.06;;;21.33;48.09
74228;BME280;62587;52.352;5.006;2022-11-06T00:22:34;101215.03;;;21.32;48.10
74228;BME280;62587;52.352;5.006;2022-11-06T00:25:00;101208.00;;;21.31;47.92
74228;BME280;62587;52.352;5.006;2022-11-06T00:27:26;101209.06;;;21.29;48.10
74228;BME280;62587;52.352;5.006;2022-11-06T00:29:51;101206.38;;;21.29;48.11
74228;BME280;62587;52.352;5.006;2022-11-06T00:32:16;101212.69;;;21.28;47.95
74228;BME280;62587;52.352;5.006;2022-11-06T00:34:42;101212.56;;;21.29;48.13
74228;BME280;62587;52.352;5.006;2022-11-06T00:37:07;101205.44;;;21.30;48.14
74228;BME280;62587;52.352;5.006;2022-11-06T00:39:32;101198.41;;;21.29;48.18
74228;BME280;62587;52.352;5.006;2022-11-06T00:41:58;101200.13;;;21.30;48.06
74228;BME280;62587;52.352;5.006;2022-11-06T00:44:23;101201.19;;;21.27;47.99
74228;BME280;62587;52.352;5.006;2022-11-06T00:46:48;101201.19;;;21.27;48.11
74228;BME280;62587;52.352;5.006;2022-11-06T00:49:14;101194.88;;;21.28;48.03
74228;BME280;62587;52.352;5.006;2022-11-06T00:51:39;101197.66;;;21.27;48.06
74228;BME280;62587;52.352;5.006;2022-11-06T00:54:06;101195.84;;;21.27;47.97
74228;BME280;62587;52.352;5.006;2022-11-06T00:56:32;101199.47;;;21.26;47.94
74228;BME280;62587;52.352;5.006;2022-11-06T00:58:59;101190.53;;;21.27;48.12
74228;BME280;62587;52.352;5.006;2022-11-06T01:04:00;101192.34;;;21.27;47.97
74228;BME280;62587;52.352;5.006;2022-11-06T01:06:28;101189.66;;;21.27;47.94
74228;BME280;62587;52.352;5.006;2022-11-06T01:08:54;101180.06;;;21.24;47.95
74228;BME280;62587;52.352;5.006;2022-11-06T01:11:24;101187.94;;;21.26;48.04
74228;BME280;62587;52.352;5.006;2022-11-06T01:13:52;101188.94;;;21.25;47.92
74228;BME280;62587;52.352;5.006;2022-11-06T01:16:20;101186.16;;;21.26;47.86
74228;BME280;62587;52.352;5.006;2022-11-06T01:18:46;101182.63;;;21.26;47.88
74228;BME280;62587;52.352;5.006;2022-11-06T01:21:15;101187.94;;;21.26;48.18
74228;BME280;62587;52.352;5.006;2022-11-06T01:23:41;101173.06;;;21.23;48.00
74228;BME280;62587;52.352;5.006;2022-11-06T01:26:09;101179.22;;;21.24;47.89
74228;BME280;62587;52.352;5.006;2022-11-06T01:28:35;101175.72;;;21.23;47.78
74228;BME280;62587;52.352;5.006;2022-11-06T01:31:03;101173.91;;;21.24;47.96
74228;BME280;62587;52.352;5.006;2022-11-06T01:33:29;101180.06;;;21.24;48.15
74228;BME280;62587;52.352;5.006;2022-11-06T01:35:54;101180.19;;;21.23;47.99
74228;BME280;62587;52.352;5.006;2022-11-06T01:38:20;101174.00;;;21.22;47.88
74228;BME280;62587;52.352;5.006;2022-11-06T01:40:46;101170.50;;;21.22;47.96
74228;BME280;62587;52.352;5.006;2022-11-06T01:43:21;101177.53;;;21.23;47.87
74228;BME280;62587;52.352;5.006;2022-11-06T01:45:49;101180.28;;;21.21;48.00
74228;BME280;62587;52.352;5.006;2022-11-06T01:48:18;101174.88;;;21.23;48.01
74228;BME280;62587;52.352;5.006;2022-11-06T01:50:48;101180.19;;;21.23;48.03
74228;BME280;62587;52.352;5.006;2022-11-06T01:53:15;101175.81;;;21.22;47.98
74228;BME280;62587;52.352;5.006;2022-11-06T01:55:43;101167.81;;;21.22;47.80
74228;BME280;62587;52.352;5.006;2022-11-06T01:58:12;101169.53;;;21.23;47.89
74228;BME280;62587;52.352;5.006;2022-11-06T02:00:39;101161.56;;;21.23;47.97
74228;BME280;62587;52.352;5.006;2022-11-06T02:03:05;101159.75;;;21.23;47.79
74228;BME280;62587;52.352;5.006;2022-11-06T02:05:30;101159.84;;;21.22;47.94
74228;BME280;62587;52.352;5.006;2022-11-06T02:07:57;101154.44;;;21.23;47.81
74228;BME280;62587;52.352;5.006;2022-11-06T02:10:23;101156.22;;;21.23;48.02
74228;BME280;62587;52.352;5.006;2022-11-06T02:16:13;101148.25;;;21.23;48.13
74228;BME280;62587;52.352;5.006;2022-11-06T02:24:10;101137.59;;;21.23;47.85
74228;BME280;62587;52.352;5.006;2022-11-06T02:27:02;101141.94;;;21.24;47.87
74228;BME280;62587;52.352;5.006;2022-11-06T02:32:09;101139.38;;;21.22;48.08
74228;BME280;62587;52.352;5.006;2022-11-06T02:34:37;101130.66;;;21.20;47.79
74228;BME280;62587;52.352;5.006;2022-11-06T02:37:09;101144.84;;;21.21;47.88
74228;BME280;62587;52.352;5.006;2022-11-06T02:39:37;101136.72;;;21.22;47.97
74228;BME280;62587;52.352;5.006;2022-11-06T02:42:06;101140.25;;;21.23;48.02
74228;BME280;62587;52.352;5.006;2022-11-06T02:44:35;101139.50;;;21.21;48.02
74228;BME280;62587;52.352;5.006;2022-11-06T02:47:04;101133.22;;;21.22;47.97
74228;BME280;62587;52.352;5.006;2022-11-06T02:49:46;101131.41;;;21.22;47.98
74228;BME280;62587;52.352;5.006;2022-11-06T02:52:33;101129.59;;;21.23;47.85
74228;BME280;62587;52.352;5.006;2022-11-06T02:57:34;101137.59;;;21.23;47.62
74228;BME280;62587;52.352;5.006;2022-11-06T03:00:08;101140.34;;;21.21;47.79
74228;BME280;62587;52.352;5.006;2022-11-06T03:02:45;101128.84;;;21.21;47.89
74228;BME280;62587;52.352;5.006;2022-11-06T03:05:19;101128.84;;;21.21;47.96
74228;BME280;62587;52.352;5.006;2022-11-06T03:07:54;101120.88;;;21.21;48.02
74228;BME280;62587;52.352;5.006;2022-11-06T03:10:27;101108.63;;;21.18;48.11
74228;BME280;62587;52.352;5.006;2022-11-06T03:13:14;101112.75;;;21.22;47.96
74228;BME280;62587;52.352;5.006;2022-11-06T03:15:51;101111.91;;;21.22;48.07
74228;BME280;62587;52.352;5.006;2022-11-06T03:18:24;101115.53;;;21.21;48.12
74228;BME280;62587;52.352;5.006;2022-11-06T03:21:00;101112.03;;;21.20;47.95
74228;BME280;62587;52.352;5.006;2022-11-06T03:23:32;101116.38;;;21.21;48.10
74228;BME280;62587;52.352;5.006;2022-11-06T03:26:08;101114.69;;;21.20;48.17
74228;BME280;62587;52.352;5.006;2022-11-06T03:28:44;101111.81;;;21.23;47.98
74228;BME280;62587;52.352;5.006;2022-11-06T03:31:16;101121.69;;;21.21;47.92
74228;BME280;62587;52.352;5.006;2022-11-06T03:33:49;101104.03;;;21.20;48.08
74228;BME280;62587;52.352;5.006;2022-11-06T03:36:31;101107.56;;;21.21;48.12
74228;BME280;62587;52.352;5.006;2022-11-06T03:39:00;101100.38;;;21.21;47.90
74228;BME280;62587;52.352;5.006;2022-11-06T03:41:32;101092.53;;;21.20;48.11
74228;BME280;62587;52.352;5.006;2022-11-06T03:44:03;101098.72;;;21.20;47.92
74228;BME280;62587;52.352;5.006;2022-11-06T03:46:30;101096.03;;;21.20;48.03
74228;BME280;62587;52.352;5.006;2022-11-06T03:49:03;101091.66;;;21.19;48.07
74228;BME280;62587;52.352;5.006;2022-11-06T03:51:42;101090.72;;;21.20;48.07
74228;BME280;62587;52.352;5.006;2022-11-06T03:54:37;101095.06;;;21.21;48.00
74228;BME280;62587;52.352;5.006;2022-11-06T03:57:30;101095.94;;;21.22;47.90
74228;BME280;62587;52.352;5.006;2022-11-06T04:00:00;101098.59;;;21.22;48.07
74228;BME280;62587;52.352;5.006;2022-11-06T04:02:29;101099.44;;;21.22;47.97
74228;BME280;62587;52.352;5.006;2022-11-06T04:04:59;101095.06;;;21.21;48.01
74228;BME280;62587;52.352;5.006;2022-11-06T04:07:33;101086.25;;;21.21;48.02
74228;BME280;62587;52.352;5.006;2022-11-06T04:10:02;101081.88;;;21.20;47.98
74228;BME280;62587;52.352;5.006;2022-11-06T04:12:47;101071.22;;;21.20;47.89
74228;BME280;62587;52.352;5.006;2022-11-06T04:15:34;101064.09;;;21.20;47.96
74228;BME280;62587;52.352;5.006;2022-11-06T04:18:01;101049.06;;;21.19;48.07
74228;BME280;62587;52.352;5.006;2022-11-06T04:20:34;101050.97;;;21.17;48.21
74228;BME280;62587;52.352;5.006;2022-11-06T04:23:33;101050.25;;;21.15;48.19
74228;BME280;62587;52.352;5.006;2022-11-06T04:26:11;101057.16;;;21.18;48.20
74228;BME280;62587;52.352;5.006;2022-11-06T04:29:21;101052.78;;;21.17;48.13
74228;BME280;62587;52.352;5.006;2022-11-06T04:34:45;101053.75;;;21.16;48.27
74228;BME280;62587;52.352;5.006;2022-11-06T04:37:21;101048.44;;;21.16;48.33
74228;BME280;62587;52.352;5.006;2022-11-06T04:40:01;101045.78;;;21.16;48.17
74228;BME280;62587;52.352;5.006;2022-11-06T04:42:39;101044.91;;;21.15;48.26
74228;BME280;62587;52.352;5.006;2022-11-06T04:45:13;101035.22;;;21.14;48.34
74228;BME280;62587;52.352;5.006;2022-11-06T04:47:42;101042.38;;;21.14;48.22
74228;BME280;62587;52.352;5.006;2022-11-06T04:50:09;101040.66;;;21.13;48.35
74228;BME280;62587;52.352;5.006;2022-11-06T04:52:37;101039.72;;;21.14;48.44
74228;BME280;62587;52.352;5.006;2022-11-06T04:55:03;101044.19;;;21.13;48.15
74228;BME280;62587;52.352;5.006;2022-11-06T04:57:28;101038.00;;;21.13;48.24
74228;BME280;62587;52.352;5.006;2022-11-06T04:59:54;101038.84;;;21.13;48.35
74228;BME280;62587;52.352;5.006;2022-11-06T05:02:21;101033.63;;;21.12;48.37
74228;BME280;62587;52.352;5.006;2022-11-06T05:04:46;101034.38;;;21.14;48.48
74228;BME280;62587;52.352;5.006;2022-11-06T05:07:13;101030.97;;;21.12;48.30
74228;BME280;62587;52.352;5.006;2022-11-06T05:09:39;101026.59;;;21.11;48.11
74228;BME280;62587;52.352;5.006;2022-11-06T05:12:04;101027.47;;;21.11;48.26
74228;BME280;62587;52.352;5.006;2022-11-06T05:14:30;101020.81;;;21.04;48.33
74228;BME280;62587;52.352;5.006;2022-11-06T05:16:56;101021.28;;;21.11;48.17
74228;BME280;62587;52.352;5.006;2022-11-06T05:19:22;101022.97;;;21.12;48.24
74228;BME280;62587;52.352;5.006;2022-11-06T05:21:47;101024.81;;;21.11;48.48
74228;BME280;62587;52.352;5.006;2022-11-06T05:24:31;101018.50;;;21.12;48.23
74228;BME280;62587;52.352;5.006;2022-11-06T05:26:56;101025.53;;;21.13;48.27
74228;BME280;62587;52.352;5.006;2022-11-06T05:29:21;101011.38;;;21.13;48.53
74228;BME280;62587;52.352;5.006;2022-11-06T05:31:47;101009.66;;;21.12;48.32
74228;BME280;62587;52.352;5.006;2022-11-06T05:34:12;101003.50;;;21.11;48.45
74228;BME280;62587;52.352;5.006;2022-11-06T05:36:38;101000.94;;;21.10;48.56
74228;BME280;62587;52.352;5.006;2022-11-06T05:39:03;100999.97;;;21.11;48.30
74228;BME280;62587;52.352;5.006;2022-11-06T05:41:29;101008.84;;;21.11;48.21
74228;BME280;62587;52.352;5.006;2022-11-06T05:43:54;101001.66;;;21.12;48.29
74228;BME280;62587;52.352;5.006;2022-11-06T05:46:19;100992.63;;;21.14;48.31
74228;BME280;62587;52.352;5.006;2022-11-06T05:48:45;100988.16;;;21.15;48.08
74228;BME280;62587;52.352;5.006;2022-11-06T05:51:10;100986.34;;;21.15;48.30
74228;BME280;62587;52.352;5.006;2022-11-06T05:53:36;100989.00;;;21.15;48.29
74228;BME280;62587;52.352;5.006;2022-11-06T05:56:02;100998.78;;;21.15;48.34
74228;BME280;62587;52.352;5.006;2022-11-06T05:58:28;100988.16;;;21.15;48.39
74228;BME280;62587;52.352;5.006;2022-11-06T06:00:54;100985.47;;;21.15;48.39
74228;BME280;62587;52.352;5.006;2022-11-06T06:03:20;100990.81;;;21.15;48.38
74228;BME280;62587;52.352;5.006;2022-11-06T06:05:46;100981.13;;;21.14;48.24
74228;BME280;62587;52.352;5.006;2022-11-06T06:08:11;100973.16;;;21.14;48.26
74228;BME280;62587;52.352;5.006;2022-11-06T06:10:44;100974.94;;;21.13;48.25
74228;BME280;62587;52.352;5.006;2022-11-06T06:13:09;100972.28;;;21.13;48.20
74228;BME280;62587;52.352;5.006;2022-11-06T06:15:39;100959.94;;;21.12;48.38
74228;BME280;62587;52.352;5.006;2022-11-06T06:18:05;100964.31;;;21.13;48.42
74228;BME280;62587;52.352;5.006;2022-11-06T06:20:31;100957.25;;;21.12;48.29
74228;BME280;62587;52.352;5.006;2022-11-06T06:22:58;100962.59;;;21.12;48.32
74228;BME280;62587;52.352;5.006;2022-11-06T06:25:24;100950.34;;;21.10;48.39
74228;BME280;62587;52.352;5.006;2022-11-06T06:27:50;100951.19;;;21.10;48.37
74228;BME280;62587;52.352;5.006;2022-11-06T06:30:16;100949.41;;;21.11;48.43
74228;BME280;62587;52.352;5.006;2022-11-06T06:32:41;100945.03;;;21.10;48.31
74228;BME280;62587;52.352;5.006;2022-11-06T06:35:07;100951.19;;;21.10;48.29
74228;BME280;62587;52.352;5.006;2022-11-06T06:37:32;100937.03;;;21.10;48.28
74228;BME280;62587;52.352;5.006;2022-11-06T06:39:57;100937.88;;;21.10;48.33
74228;BME280;62587;52.352;5.006;2022-11-06T06:42:23;100938.84;;;21.09;48.58
74228;BME280;62587;52.352;5.006;2022-11-06T06:44:48;100938.97;;;21.08;48.50
74228;BME280;62587;52.352;5.006;2022-11-06T06:47:14;100937.16;;;21.08;48.44
74228;BME280;62587;52.352;5.006;2022-11-06T06:49:43;100946.09;;;21.07;48.39
74228;BME280;62587;52.352;5.006;2022-11-06T06:52:09;100953.13;;;21.08;48.46
74228;BME280;62587;52.352;5.006;2022-11-06T06:54:35;100944.28;;;21.08;48.50
74228;BME280;62587;52.352;5.006;2022-11-06T06:57:00;100939.81;;;21.08;48.40
74228;BME280;62587;52.352;5.006;2022-11-06T06:59:28;100932.69;;;21.09;48.38
74228;BME280;62587;52.352;5.006;2022-11-06T07:01:54;100923.84;;;21.08;48.58
74228;BME280;62587;52.352;5.006;2022-11-06T07:04:20;100910.63;;;21.07;48.43
74228;BME280;62587;52.352;5.006;2022-11-06T07:06:46;100917.66;;;21.08;48.17
74228;BME280;62587;52.352;5.006;2022-11-06T07:09:11;100920.31;;;21.08;48.59
74228;BME280;62587;52.352;5.006;2022-11-06T07:11:36;100921.28;;;21.07;48.57
74228;BME280;62587;52.352;5.006;2022-11-06T07:14:02;100923.13;;;21.06;48.61
74228;BME280;62587;52.352;5.006;2022-11-06T07:16:27;100924.91;;;21.06;48.60
74228;BME280;62587;52.352;5.006;2022-11-06T07:18:54;100929.38;;;21.05;48.48
74228;BME280;62587;52.352;5.006;2022-11-06T07:21:20;100919.66;;;21.04;48.48
74228;BME280;62587;52.352;5.006;2022-11-06T07:23:46;100926.72;;;21.05;48.47
74228;BME280;62587;52.352;5.006;2022-11-06T07:26:11;100917.78;;;21.06;48.40
74228;BME280;62587;52.352;5.006;2022-11-06T07:28:36;100920.44;;;21.06;48.59
74228;BME280;62587;52.352;5.006;2022-11-06T07:31:03;100925.78;;;21.06;48.38
74228;BME280;62587;52.352;5.006;2022-11-06T07:33:29;100931.09;;;21.06;48.48
74228;BME280;62587;52.352;5.006;2022-11-06T07:35:55;100925.78;;;21.06;48.52
74228;BME280;62587;52.352;5.006;2022-11-06T07:38:20;100923.94;;;21.07;48.40
74228;BME280;62587;52.352;5.006;2022-11-06T07:40:45;100932.03;;;21.05;48.54
74228;BME280;62587;52.352;5.006;2022-11-06T07:43:11;100926.59;;;21.07;48.54
74228;BME280;62587;52.352;5.006;2022-11-06T07:45:37;100934.50;;;21.08;48.55
74228;BME280;62587;52.352;5.006;2022-11-06T07:48:03;100938.09;;;21.07;48.45
74228;BME280;62587;52.352;5.006;2022-11-06T07:50:29;100934.59;;;21.07;48.30
74228;BME280;62587;52.352;5.006;2022-11-06T07:52:54;100945.22;;;21.07;48.47
74228;BME280;62587;52.352;5.006;2022-11-06T07:55:20;100942.78;;;21.04;48.76
74228;BME280;62587;52.352;5.006;2022-11-06T07:57:45;100933.94;;;21.03;48.86
74228;BME280;62587;52.352;5.006;2022-11-06T08:00:12;100946.28;;;21.04;49.06
74228;BME280;62587;52.352;5.006;2022-11-06T08:02:38;100949.91;;;21.03;48.80
74228;BME280;62587;52.352;5.006;2022-11-06T08:05:04;100946.09;;;21.07;48.97
74228;BME280;62587;52.352;5.006;2022-11-06T08:07:30;100952.06;;;21.11;48.85
74228;BME280;62587;52.352;5.006;2022-11-06T08:09:55;100949.19;;;21.14;48.51
74228;BME280;62587;52.352;5.006;2022-11-06T08:12:20;100938.06;;;21.20;48.49
74228;BME280;62587;52.352;5.006;2022-11-06T08:14:46;100933.28;;;21.25;48.54
74228;BME280;62587;52.352;5.006;2022-11-06T08:17:11;100924.81;;;21.31;48.48
74228;BME280;62587;52.352;5.006;2022-11-06T08:19:36;100918.06;;;21.38;48.35
74228;BME280;62587;52.352;5.006;2022-11-06T08:22:02;100919.44;;;21.44;48.11
74228;BME280;62587;52.352;5.006;2022-11-06T08:24:27;100926.03;;;21.51;47.93
74228;BME280;62587;52.352;5.006;2022-11-06T08:26:53;100916.72;;;21.56;47.79
74228;BME280;62587;52.352;5.006;2022-11-06T08:29:18;100913.59;;;21.62;47.71
74228;BME280;62587;52.352;5.006;2022-11-06T08:31:43;100916.03;;;21.65;47.64
74228;BME280;62587;52.352;5.006;2022-11-06T08:34:09;100909.28;;;21.72;47.69
74228;BME280;62587;52.352;5.006;2022-11-06T08:36:40;100905.31;;;21.78;47.52
74228;BME280;62587;52.352;5.006;2022-11-06T08:39:07;100896.25;;;21.80;47.35
74228;BME280;62587;52.352;5.006;2022-11-06T08:41:32;100893.34;;;21.83;47.34
74228;BME280;62587;52.352;5.006;2022-11-06T08:43:58;100886.84;;;21.87;47.17
74228;BME280;62587;52.352;5.006;2022-11-06T08:46:23;100879.56;;;21.89;47.28
74228;BME280;62587;52.352;5.006;2022-11-06T08:48:49;100869.63;;;21.91;47.19
74228;BME280;62587;52.352;5.006;2022-11-06T08:51:14;100871.22;;;21.94;47.05
74228;BME280;62587;52.352;5.006;2022-11-06T08:53:39;100873.75;;;21.95;47.29
74228;BME280;62587;52.352;5.006;2022-11-06T08:56:05;100865.66;;;21.97;47.19
74228;BME280;62587;52.352;5.006;2022-11-06T08:58:30;100856.59;;;21.99;47.08
74228;BME280;62587;52.352;5.006;2022-11-06T09:00:56;100857.53;;;21.98;47.15
74228;BME280;62587;52.352;5.006;2022-11-06T09:03:21;100856.69;;;21.98;47.14
74228;BME280;62587;52.352;5.006;2022-11-06T09:05:46;100863.84;;;21.97;47.16
74228;BME280;62587;52.352;5.006;2022-11-06T09:08:12;100854.13;;;21.96;47.53
74228;BME280;62587;52.352;5.006;2022-11-06T09:10:39;100843.47;;;21.96;47.50
74228;BME280;62587;52.352;5.006;2022-11-06T09:13:05;100843.47;;;21.96;47.45
74228;BME280;62587;52.352;5.006;2022-11-06T09:15:30;100848.69;;;21.98;47.13
74228;BME280;62587;52.352;5.006;2022-11-06T09:17:56;100839.84;;;21.97;47.33
74228;BME280;62587;52.352;5.006;2022-11-06T09:20:22;100831.72;;;21.99;47.35
74228;BME280;62587;52.352;5.006;2022-11-06T09:22:49;100839.59;;;22.00;47.41
74228;BME280;62587;52.352;5.006;2022-11-06T09:25:15;100844.09;;;22.00;47.58
74228;BME280;62587;52.352;5.006;2022-11-06T09:27:45;100828.09;;;22.00;47.53
74228;BME280;62587;52.352;5.006;2022-11-06T09:30:13;100828.94;;;22.00;47.68
74228;BME280;62587;52.352;5.006;2022-11-06T09:32:48;100827.13;;;22.01;47.80
74228;BME280;62587;52.352;5.006;2022-11-06T09:35:14;100836.94;;;22.00;47.66
74228;BME280;62587;52.352;5.006;2022-11-06T09:37:40;100830.66;;;22.01;47.77
74228;BME280;62587;52.352;5.006;2022-11-06T09:40:06;100835.84;;;22.03;47.74
74228;BME280;62587;52.352;5.006;2022-11-06T09:45:21;100842.03;;;22.03;47.83
74228;BME280;62587;52.352;5.006;2022-11-06T09:47:53;100830.66;;;22.01;47.78
74228;BME280;62587;52.352;5.006;2022-11-06T09:50:25;100835.13;;;22.01;48.01
74228;BME280;62587;52.352;5.006;2022-11-06T09:52:57;100847.59;;;22.00;48.01
74228;BME280;62587;52.352;5.006;2022-11-06T09:55:28;100843.25;;;21.99;48.08
74228;BME280;62587;52.352;5.006;2022-11-06T09:58:04;100843.34;;;21.98;47.93
74228;BME280;62587;52.352;5.006;2022-11-06T10:00:33;100834.41;;;21.99;48.06
74228;BME280;62587;52.352;5.006;2022-11-06T10:03:11;100829.28;;;21.96;48.11
74228;BME280;62587;52.352;5.006;2022-11-06T10:05:40;100830.00;;;21.98;48.14
74228;BME280;62587;52.352;5.006;2022-11-06T10:08:19;100824.81;;;21.96;48.10
74228;BME280;62587;52.352;5.006;2022-11-06T10:11:06;100819.72;;;21.93;48.10
74228;BME280;62587;52.352;5.006;2022-11-06T10:14:30;100818.25;;;21.89;48.46
74228;BME280;62587;52.352;5.006;2022-11-06T10:19:23;100803.91;;;21.79;48.66
74228;BME280;62587;52.352;5.006;2022-11-06T10:21:58;100791.78;;;21.75;49.01
74228;BME280;62587;52.352;5.006;2022-11-06T10:24:45;100782.22;;;21.73;48.92
74228;BME280;62587;52.352;5.006;2022-11-06T10:27:25;100787.19;;;21.66;48.94
74228;BME280;62587;52.352;5.006;2022-11-06T10:29:58;100799.66;;;21.66;48.84
74228;BME280;62587;52.352;5.006;2022-11-06T10:35:10;100792.50;;;21.66;48.95
74228;BME280;62587;52.352;5.006;2022-11-06T10:37:49;100790.44;;;21.70;48.80
74228;BME280;62587;52.352;5.006;2022-11-06T10:40:22;100787.78;;;21.70;48.91
74228;BME280;62587;52.352;5.006;2022-11-06T10:42:55;100781.72;;;21.68;48.85
74228;BME280;62587;52.352;5.006;2022-11-06T10:45:25;100771.69;;;21.71;48.83
74228;BME280;62587;52.352;5.006;2022-11-06T10:47:58;100773.16;;;21.75;48.82
74228;BME280;62587;52.352;5.006;2022-11-06T10:50:37;100764.66;;;21.81;48.68
74228;BME280;62587;52.352;5.006;2022-11-06T10:53:14;100743.22;;;21.83;48.66
74228;BME280;62587;52.352;5.006;2022-11-06T10:56:03;100751.22;;;21.83;48.57
74228;BME280;62587;52.352;5.006;2022-11-06T10:58:32;100749.31;;;21.85;48.36
74228;BME280;62587;52.352;5.006;2022-11-06T11:01:00;100739.59;;;21.84;48.55
74228;BME280;62587;52.352;5.006;2022-11-06T11:03:36;100739.50;;;21.85;48.51
74228;BME280;62587;52.352;5.006;2022-11-06T11:06:04;100737.56;;;21.87;48.38
74228;BME280;62587;52.352;5.006;2022-11-06T11:13:45;100721.69;;;21.86;48.32
74228;BME280;62587;52.352;5.006;2022-11-06T11:16:16;100717.34;;;21.85;48.38
74228;BME280;62587;52.352;5.006;2022-11-06T11:18:44;100707.72;;;21.82;48.32
74228;BME280;62587;52.352;5.006;2022-11-06T11:21:21;100712.09;;;21.83;48.41
74228;BME280;62587;52.352;5.006;2022-11-06T11:24:10;100694.78;;;21.78;48.32
74228;BME280;62587;52.352;5.006;2022-11-06T11:26:43;100706.78;;;21.83;48.44
74228;BME280;62587;52.352;5.006;2022-11-06T11:29:15;100701.44;;;21.83;48.42
74228;BME280;62587;52.352;5.006;2022-11-06T11:31:44;100696.34;;;21.80;48.31
74228;BME280;62587;52.352;5.006;2022-11-06T11:34:17;100696.22;;;21.82;48.35
74228;BME280;62587;52.352;5.006;2022-11-06T11:37:00;100696.44;;;21.79;48.42
74228;BME280;62587;52.352;5.006;2022-11-06T11:39:32;100692.09;;;21.78;48.43
74228;BME280;62587;52.352;5.006;2022-11-06T11:44:45;100686.06;;;21.76;48.46
74228;BME280;62587;52.352;5.006;2022-11-06T11:47:21;100684.22;;;21.76;48.41
74228;BME280;62587;52.352;5.006;2022-11-06T11:49:47;100681.69;;;21.75;48.47
74228;BME280;62587;52.352;5.006;2022-11-06T11:52:18;100677.06;;;21.77;48.41
74228;BME280;62587;52.352;5.006;2022-11-06T11:54:48;100671.88;;;21.75;48.43
74228;BME280;62587;52.352;5.006;2022-11-06T11:57:25;100656.75;;;21.76;48.52
74228;BME280;62587;52.352;5.006;2022-11-06T11:59:57;100660.84;;;21.69;48.54
74228;BME280;62587;52.352;5.006;2022-11-06T12:02:30;100659.00;;;21.69;48.55
74228;BME280;62587;52.352;5.006;2022-11-06T12:04:59;100664.84;;;21.74;48.50
74228;BME280;62587;52.352;5.006;2022-11-06T12:07:31;100661.22;;;21.75;48.51
74228;BME280;62587;52.352;5.006;2022-11-06T12:09:59;100657.81;;;21.73;48.58
74228;BME280;62587;52.352;5.006;2022-11-06T12:12:30;100657.81;;;21.73;48.58
74228;BME280;62587;52.352;5.006;2022-11-06T12:15:16;100652.59;;;21.72;48.73
74228;BME280;62587;52.352;5.006;2022-11-06T12:17:43;100644.75;;;21.70;48.64
74228;BME280;62587;52.352;5.006;2022-11-06T12:20:14;100629.72;;;21.69;48.57
74228;BME280;62587;52.352;5.006;2022-11-06T12:22:44;100621.72;;;21.69;48.68
74228;BME280;62587;52.352;5.006;2022-11-06T12:25:18;100627.91;;;21.70;48.67
74228;BME280;62587;52.352;5.006;2022-11-06T12:27:54;100623.41;;;21.70;48.58
74228;BME280;62587;52.352;5.006;2022-11-06T12:30:21;100610.94;;;21.71;48.55
74228;BME280;62587;52.352;5.006;2022-11-06T12:32:55;100610.94;;;21.71;48.71
74228;BME280;62587;52.352;5.006;2022-11-06T12:35:28;100596.78;;;21.70;48.66
74228;BME280;62587;52.352;5.006;2022-11-06T12:38:01;100601.16;;;21.71;48.57
74228;BME280;62587;52.352;5.006;2022-11-06T12:40:34;100595.81;;;21.71;48.49
74228;BME280;62587;52.352;5.006;2022-11-06T12:43:04;100587.22;;;21.68;48.35
74228;BME280;62587;52.352;5.006;2022-11-06T12:50:58;100584.31;;;21.71;49.34
74228;BME280;62587;52.352;5.006;2022-11-06T12:56:07;100579.69;;;21.73;49.37
74228;BME280;62587;52.352;5.006;2022-11-06T13:02:39;100571.31;;;21.77;49.33
74228;BME280;62587;52.352;5.006;2022-11-06T13:10:39;100570.94;;;21.82;49.16
74228;BME280;62587;52.352;5.006;2022-11-06T13:15:50;100574.34;;;21.84;49.07
74228;BME280;62587;52.352;5.006;2022-11-06T13:18:28;100577.88;;;21.84;49.13
74228;BME280;62587;52.352;5.006;2022-11-06T13:21:18;100572.66;;;21.83;49.19
74228;BME280;62587;52.352;5.006;2022-11-06T13:23:57;100573.50;;;21.83;49.03
74228;BME280;62587;52.352;5.006;2022-11-06T13:26:40;100565.50;;;21.83;49.14
74228;BME280;62587;52.352;5.006;2022-11-06T13:29:13;100568.06;;;21.85;48.91
74228;BME280;62587;52.352;5.006;2022-11-06T13:31:45;100567.22;;;21.84;48.98
74228;BME280;62587;52.352;5.006;2022-11-06T13:34:21;100555.59;;;21.85;49.00
74228;BME280;62587;52.352;5.006;2022-11-06T13:36:49;100561.88;;;21.84;48.97
74228;BME280;62587;52.352;5.006;2022-11-06T13:39:21;100551.22;;;21.84;48.83
74228;BME280;62587;52.352;5.006;2022-11-06T13:41:51;100556.66;;;21.83;49.01
74228;BME280;62587;52.352;5.006;2022-11-06T13:44:18;100551.34;;;21.83;48.96
74228;BME280;62587;52.352;5.006;2022-11-06T13:46:57;100553.16;;;21.82;48.94
74228;BME280;62587;52.352;5.006;2022-11-06T13:49:43;100539.81;;;21.82;48.79
74228;BME280;62587;52.352;5.006;2022-11-06T13:52:23;100548.78;;;21.81;48.95
74228;BME280;62587;52.352;5.006;2022-11-06T13:55:34;100543.59;;;21.80;48.78
74228;BME280;62587;52.352;5.006;2022-11-06T14:06:26;100526.25;;;21.74;51.78
74228;BME280;62587;52.352;5.006;2022-11-06T14:09:01;100530.78;;;21.74;51.75